sensor_id;sensor_type;location;lat;lon;timestamp;temperature;humidity
64939;DHT22;51453;47.738;7.420;2022-12-13T00:01:31;-4.30;99.90
64939;DHT22;51453;47.738;7.420;2022-12-13T00:03:59;-4.30;99.90
64939;DHT22;51453;47.738;7.420;2022-12-13T00:06:25;-4.20;99.90
64939;DHT22;51453;47.738;7.420;2022-12-13T00:08:51;-4.30;99.90
64939;DHT22;51453;47.738;7.420;2022-12-13T00:11:17;-4.40;99.90
64939;DHT22;51453;47.738;7.420;2022-12-13T00:13:43;-4.40;99.90
64939;DHT22;51453;47.738;7.420;2022-12-13T00:16:17;-4.50;99.90
64939;DHT22;51453;47.738;7.420;2022-12-13T00:18:46;-4.50;99.90
64939;DHT22;51453;47.738;7.420;2022-12-13T00:21:14;-4.50;99.90
64939;DHT22;51453;47.738;7.420;2022-12-13T00:23:40;-4.50;99.90
64939;DHT22;51453;47.738;7.420;2022-12-13T00:26:11;-4.50;99.90
64939;DHT22;51453;47.738;7.420;2022-12-13T00:28:38;-4.50;99.90
64939;DHT22;51453;47.738;7.420;2022-12-13T00:31:04;-4.40;99.90
64939;DHT22;51453;47.738;7.420;2022-12-13T00:33:30;-4.40;99.90
64939;DHT22;51453;47.738;7.420;2022-12-13T00:35:56;-4.40;99.90
64939;DHT22;51453;47.738;7.420;2022-12-13T00:38:24;-4.40;99.90
64939;DHT22;51453;47.738;7.420;2022-12-13T00:40:50;-4.40;99.90
64939;DHT22;51453;47.738;7.420;2022-12-13T00:43:16;-4.50;99.90
64939;DHT22;51453;47.738;7.420;2022-12-13T00:45:43;-4.50;99.90
64939;DHT22;51453;47.738;7.420;2022-12-13T00:48:09;-4.50;99.90
64939;DHT22;51453;47.738;7.420;2022-12-13T00:50:36;-4.50;99.90
64939;DHT22;51453;47.738;7.420;2022-12-13T00:53:02;-4.50;99.90
64939;DHT22;51453;47.738;7.420;2022-12-13T00:55:28;-4.50;99.90
64939;DHT22;51453;47.738;7.420;2022-12-13T00:57:54;-4.50;99.90
64939;DHT22;51453;47.738;7.420;2022-12-13T01:00:19;-4.50;99.90
64939;DHT22;51453;47.738;7.420;2022-12-13T01:02:45;-4.50;99.90
64939;DHT22;51453;47.738;7.420;2022-12-13T01:05:12;-4.50;99.90
64939;DHT22;51453;47.738;7.420;2022-12-13T01:07:39;-4.60;99.90
64939;DHT22;51453;47.738;7.420;2022-12-13T01:10:06;-4.60;99.90
64939;DHT22;51453;47.738;7.420;2022-12-13T01:12:33;-4.60;99.90
64939;DHT22;51453;47.738;7.420;2022-12-13T01:14:58;-4.60;99.90
64939;DHT22;51453;47.738;7.420;2022-12-13T01:17:24;-4.60;99.90
64939;DHT22;51453;47.738;7.420;2022-12-13T01:19:50;-4.70;99.90
64939;DHT22;51453;47.738;7.420;2022-12-13T01:22:15;-4.70;99.90
64939;DHT22;51453;47.738;7.420;2022-12-13T01:24:41;-4.60;99.90
64939;DHT22;51453;47.738;7.420;2022-12-13T01:27:07;-4.60;99.90
64939;DHT22;51453;47.738;7.420;2022-12-13T01:29:33;-4.50;99.90
64939;DHT22;51453;47.738;7.420;2022-12-13T01:31:58;-4.40;99.90
64939;DHT22;51453;47.738;7.420;2022-12-13T01:34:24;-4.40;99.90
64939;DHT22;51453;47.738;7.420;2022-12-13T01:36:52;-4.50;99.90
64939;DHT22;51453;47.738;7.420;2022-12-13T01:39:22;-4.50;99.90
64939;DHT22;51453;47.738;7.420;2022-12-13T01:41:50;-4.50;99.90
64939;DHT22;51453;47.738;7.420;2022-12-13T01:50:08;-4.60;99.90
64939;DHT22;51453;47.738;7.420;2022-12-13T01:52:35;-4.60;99.90
64939;DHT22;51453;47.738;7.420;2022-12-13T01:55:03;-4.70;99.90
64939;DHT22;51453;47.738;7.420;2022-12-13T01:57:30;-4.80;99.90
64939;DHT22;51453;47.738;7.420;2022-12-13T01:59:57;-4.80;99.90
64939;DHT22;51453;47.738;7.420;2022-12-13T02:02:23;-5.00;99.90
64939;DHT22;51453;47.738;7.420;2022-12-13T02:04:51;-5.10;99.90
64939;DHT22;51453;47.738;7.420;2022-12-13T02:07:20;-5.20;99.90
64939;DHT22;51453;47.738;7.420;2022-12-13T02:09:48;-5.30;99.90
64939;DHT22;51453;47.738;7.420;2022-12-13T02:12:14;-5.30;99.90
64939;DHT22;51453;47.738;7.420;2022-12-13T02:14:40;-5.30;99.90
64939;DHT22;51453;47.738;7.420;2022-12-13T02:32:14;-5.50;99.90
64939;DHT22;51453;47.738;7.420;2022-12-13T02:34:46;-5.50;99.90
64939;DHT22;51453;47.738;7.420;2022-12-13T02:37:25;-5.60;99.90
64939;DHT22;51453;47.738;7.420;2022-12-13T02:43:00;-5.60;99.90
64939;DHT22;51453;47.738;7.420;2022-12-13T02:45:54;-5.70;99.90
64939;DHT22;51453;47.738;7.420;2022-12-13T02:48:26;-5.60;99.90
64939;DHT22;51453;47.738;7.420;2022-12-13T02:50:52;-5.70;99.90
64939;DHT22;51453;47.738;7.420;2022-12-13T02:53:20;-5.70;99.90
64939;DHT22;51453;47.738;7.420;2022-12-13T02:55:47;-5.70;99.90
64939;DHT22;51453;47.738;7.420;2022-12-13T02:58:15;-5.70;99.90
64939;DHT22;51453;47.738;7.420;2022-12-13T03:00:50;-5.60;99.90
64939;DHT22;51453;47.738;7.420;2022-12-13T03:09:43;-5.70;99.90
64939;DHT22;51453;47.738;7.420;2022-12-13T03:15:24;-5.70;99.90
64939;DHT22;51453;47.738;7.420;2022-12-13T03:17:56;-5.70;99.90
64939;DHT22;51453;47.738;7.420;2022-12-13T03:20:27;-5.70;99.90
64939;DHT22;51453;47.738;7.420;2022-12-13T03:22:54;-5.70;99.90
64939;DHT22;51453;47.738;7.420;2022-12-13T03:25:22;-5.80;99.90
64939;DHT22;51453;47.738;7.420;2022-12-13T03:27:49;-5.80;99.90
64939;DHT22;51453;47.738;7.420;2022-12-13T03:30:15;-5.80;99.90
64939;DHT22;51453;47.738;7.420;2022-12-13T03:32:40;-5.80;99.90
64939;DHT22;51453;47.738;7.420;2022-12-13T03:35:06;-5.80;99.90
64939;DHT22;51453;47.738;7.420;2022-12-13T03:37:32;-5.80;99.90
64939;DHT22;51453;47.738;7.420;2022-12-13T03:39:58;-5.90;99.90
64939;DHT22;51453;47.738;7.420;2022-12-13T03:42:24;-5.90;99.90
64939;DHT22;51453;47.738;7.420;2022-12-13T03:44:50;-5.90;99.90
64939;DHT22;51453;47.738;7.420;2022-12-13T03:47:16;-6.00;99.90
64939;DHT22;51453;47.738;7.420;2022-12-13T03:49:42;-6.00;99.90
64939;DHT22;51453;47.738;7.420;2022-12-13T03:52:08;-6.00;99.90
64939;DHT22;51453;47.738;7.420;2022-12-13T03:54:33;-6.00;99.90
64939;DHT22;51453;47.738;7.420;2022-12-13T03:56:59;-6.00;99.90
64939;DHT22;51453;47.738;7.420;2022-12-13T03:59:25;-6.10;99.90
64939;DHT22;51453;47.738;7.420;2022-12-13T04:01:51;-6.10;99.90
64939;DHT22;51453;47.738;7.420;2022-12-13T04:04:17;-6.00;99.90
64939;DHT22;51453;47.738;7.420;2022-12-13T04:06:43;-6.10;99.90
64939;DHT22;51453;47.738;7.420;2022-12-13T04:09:08;-6.10;99.90
64939;DHT22;51453;47.738;7.420;2022-12-13T04:11:34;-6.10;99.90
64939;DHT22;51453;47.738;7.420;2022-12-13T04:14:18;-6.20;99.90
64939;DHT22;51453;47.738;7.420;2022-12-13T04:16:44;-6.20;99.90
64939;DHT22;51453;47.738;7.420;2022-12-13T04:19:10;-6.20;99.90
64939;DHT22;51453;47.738;7.420;2022-12-13T04:21:36;-6.20;99.90
64939;DHT22;51453;47.738;7.420;2022-12-13T04:24:01;-6.30;99.90
64939;DHT22;51453;47.738;7.420;2022-12-13T04:26:27;-6.30;99.90
64939;DHT22;51453;47.738;7.420;2022-12-13T04:28:53;-6.30;99.90
64939;DHT22;51453;47.738;7.420;2022-12-13T04:31:19;-6.30;99.90
64939;DHT22;51453;47.738;7.420;2022-12-13T04:33:44;-6.20;99.90
64939;DHT22;51453;47.738;7.420;2022-12-13T04:36:10;-6.20;99.90
64939;DHT22;51453;47.738;7.420;2022-12-13T04:38:35;-6.30;99.90
64939;DHT22;51453;47.738;7.420;2022-12-13T04:41:15;-6.30;99.90
64939;DHT22;51453;47.738;7.420;2022-12-13T04:43:41;-6.30;99.90
64939;DHT22;51453;47.738;7.420;2022-12-13T04:46:06;-6.30;99.90
64939;DHT22;51453;47.738;7.420;2022-12-13T04:48:32;-6.20;99.90
64939;DHT22;51453;47.738;7.420;2022-12-13T04:50:59;-6.20;99.90
64939;DHT22;51453;47.738;7.420;2022-12-13T04:53:25;-6.30;99.90
64939;DHT22;51453;47.738;7.420;2022-12-13T04:55:51;-6.20;99.90
64939;DHT22;51453;47.738;7.420;2022-12-13T04:58:17;-6.30;99.90
64939;DHT22;51453;47.738;7.420;2022-12-13T05:00:44;-6.30;99.90
64939;DHT22;51453;47.738;7.420;2022-12-13T05:03:10;-6.30;99.90
64939;DHT22;51453;47.738;7.420;2022-12-13T05:05:39;-6.30;99.90
64939;DHT22;51453;47.738;7.420;2022-12-13T05:08:06;-6.30;99.90
64939;DHT22;51453;47.738;7.420;2022-12-13T05:10:32;-6.30;99.90
64939;DHT22;51453;47.738;7.420;2022-12-13T05:12:59;-6.40;99.90
64939;DHT22;51453;47.738;7.420;2022-12-13T05:15:25;-6.40;99.90
64939;DHT22;51453;47.738;7.420;2022-12-13T05:17:51;-6.40;99.90
64939;DHT22;51453;47.738;7.420;2022-12-13T05:20:16;-6.40;99.90
64939;DHT22;51453;47.738;7.420;2022-12-13T05:22:42;-6.40;99.90
64939;DHT22;51453;47.738;7.420;2022-12-13T05:25:08;-6.40;99.90
64939;DHT22;51453;47.738;7.420;2022-12-13T05:27:34;-6.40;99.90
64939;DHT22;51453;47.738;7.420;2022-12-13T05:30:00;-6.50;99.90
64939;DHT22;51453;47.738;7.420;2022-12-13T05:32:25;-6.40;99.90
64939;DHT22;51453;47.738;7.420;2022-12-13T05:34:51;-6.40;99.90
64939;DHT22;51453;47.738;7.420;2022-12-13T05:37:16;-6.40;99.90
64939;DHT22;51453;47.738;7.420;2022-12-13T05:39:45;-6.40;99.90
64939;DHT22;51453;47.738;7.420;2022-12-13T05:42:11;-6.30;99.90
64939;DHT22;51453;47.738;7.420;2022-12-13T05:44:36;-6.30;99.90
64939;DHT22;51453;47.738;7.420;2022-12-13T05:47:02;-6.30;99.90
64939;DHT22;51453;47.738;7.420;2022-12-13T05:49:28;-6.30;99.90
64939;DHT22;51453;47.738;7.420;2022-12-13T05:51:53;-6.30;99.90
64939;DHT22;51453;47.738;7.420;2022-12-13T05:54:19;-6.20;99.90
64939;DHT22;51453;47.738;7.420;2022-12-13T05:56:44;-6.20;99.90
64939;DHT22;51453;47.738;7.420;2022-12-13T05:59:10;-6.20;99.90
64939;DHT22;51453;47.738;7.420;2022-12-13T06:01:36;-6.20;99.90
64939;DHT22;51453;47.738;7.420;2022-12-13T06:04:02;-6.20;99.90
64939;DHT22;51453;47.738;7.420;2022-12-13T06:06:27;-6.20;99.90
64939;DHT22;51453;47.738;7.420;2022-12-13T06:08:53;-6.20;99.90
64939;DHT22;51453;47.738;7.420;2022-12-13T06:11:19;-6.20;99.90
64939;DHT22;51453;47.738;7.420;2022-12-13T06:13:50;-6.20;99.90
64939;DHT22;51453;47.738;7.420;2022-12-13T06:16:16;-6.10;99.90
64939;DHT22;51453;47.738;7.420;2022-12-13T06:18:42;-6.10;99.90
64939;DHT22;51453;47.738;7.420;2022-12-13T06:21:08;-6.10;99.90
64939;DHT22;51453;47.738;7.420;2022-12-13T06:23:34;-6.10;99.90
64939;DHT22;51453;47.738;7.420;2022-12-13T06:26:05;-6.00;99.90
64939;DHT22;51453;47.738;7.420;2022-12-13T06:28:34;-6.00;99.90
64939;DHT22;51453;47.738;7.420;2022-12-13T06:31:00;-6.00;99.90
64939;DHT22;51453;47.738;7.420;2022-12-13T06:33:26;-6.00;99.90
64939;DHT22;51453;47.738;7.420;2022-12-13T06:35:55;-6.00;99.90
64939;DHT22;51453;47.738;7.420;2022-12-13T06:38:22;-5.90;99.90
64939;DHT22;51453;47.738;7.420;2022-12-13T06:40:48;-6.00;99.90
64939;DHT22;51453;47.738;7.420;2022-12-13T06:43:13;-5.90;99.90
64939;DHT22;51453;47.738;7.420;2022-12-13T06:45:40;-5.90;99.90
64939;DHT22;51453;47.738;7.420;2022-12-13T06:48:05;-5.90;99.90
64939;DHT22;51453;47.738;7.420;2022-12-13T06:50:31;-5.80;99.90
64939;DHT22;51453;47.738;7.420;2022-12-13T06:52:57;-5.70;99.90
64939;DHT22;51453;47.738;7.420;2022-12-13T06:55:22;-5.70;99.90
64939;DHT22;51453;47.738;7.420;2022-12-13T06:57:48;-5.60;99.90
64939;DHT22;51453;47.738;7.420;2022-12-13T07:00:14;-5.60;99.90
64939;DHT22;51453;47.738;7.420;2022-12-13T07:02:40;-5.50;99.90
64939;DHT22;51453;47.738;7.420;2022-12-13T07:05:06;-5.50;99.90
64939;DHT22;51453;47.738;7.420;2022-12-13T07:07:32;-5.50;99.90
64939;DHT22;51453;47.738;7.420;2022-12-13T07:09:57;-5.40;99.90
64939;DHT22;51453;47.738;7.420;2022-12-13T07:12:23;-5.50;99.90
64939;DHT22;51453;47.738;7.420;2022-12-13T07:14:49;-5.50;99.90
64939;DHT22;51453;47.738;7.420;2022-12-13T07:17:15;-5.50;99.90
64939;DHT22;51453;47.738;7.420;2022-12-13T07:19:41;-5.50;99.90
64939;DHT22;51453;47.738;7.420;2022-12-13T07:22:06;-5.50;99.90
64939;DHT22;51453;47.738;7.420;2022-12-13T07:24:35;-5.50;99.90
64939;DHT22;51453;47.738;7.420;2022-12-13T07:27:02;-5.50;99.90
64939;DHT22;51453;47.738;7.420;2022-12-13T07:29:28;-5.50;99.90
64939;DHT22;51453;47.738;7.420;2022-12-13T07:31:53;-5.50;99.90
64939;DHT22;51453;47.738;7.420;2022-12-13T07:34:19;-5.50;99.90
64939;DHT22;51453;47.738;7.420;2022-12-13T07:36:45;-5.50;99.90
64939;DHT22;51453;47.738;7.420;2022-12-13T07:39:11;-5.50;99.90
64939;DHT22;51453;47.738;7.420;2022-12-13T07:41:36;-5.50;99.90
64939;DHT22;51453;47.738;7.420;2022-12-13T07:44:02;-5.40;99.90
64939;DHT22;51453;47.738;7.420;2022-12-13T07:46:28;-5.40;99.90
64939;DHT22;51453;47.738;7.420;2022-12-13T07:48:53;-5.30;99.90
64939;DHT22;51453;47.738;7.420;2022-12-13T07:51:19;-5.30;99.90
64939;DHT22;51453;47.738;7.420;2022-12-13T07:53:44;-5.30;99.90
64939;DHT22;51453;47.738;7.420;2022-12-13T07:56:11;-5.20;99.90
64939;DHT22;51453;47.738;7.420;2022-12-13T07:58:37;-5.20;99.90
64939;DHT22;51453;47.738;7.420;2022-12-13T08:01:08;-5.20;99.90
64939;DHT22;51453;47.738;7.420;2022-12-13T08:03:34;-5.20;99.90
64939;DHT22;51453;47.738;7.420;2022-12-13T08:06:10;-5.10;99.90
64939;DHT22;51453;47.738;7.420;2022-12-13T08:08:37;-5.10;99.90
64939;DHT22;51453;47.738;7.420;2022-12-13T08:11:04;-5.10;99.90
64939;DHT22;51453;47.738;7.420;2022-12-13T08:13:30;-5.10;99.90
64939;DHT22;51453;47.738;7.420;2022-12-13T08:16:02;-5.00;99.90
64939;DHT22;51453;47.738;7.420;2022-12-13T08:18:28;-4.90;99.90
64939;DHT22;51453;47.738;7.420;2022-12-13T08:21:02;-4.80;99.90
64939;DHT22;51453;47.738;7.420;2022-12-13T08:23:30;-4.80;99.90
64939;DHT22;51453;47.738;7.420;2022-12-13T08:25:55;-4.80;99.90
64939;DHT22;51453;47.738;7.420;2022-12-13T08:28:22;-4.80;99.90
64939;DHT22;51453;47.738;7.420;2022-12-13T08:30:47;-4.80;99.90
64939;DHT22;51453;47.738;7.420;2022-12-13T08:33:14;-4.80;99.90
64939;DHT22;51453;47.738;7.420;2022-12-13T08:35:40;-4.70;99.90
64939;DHT22;51453;47.738;7.420;2022-12-13T08:38:06;-4.60;99.90
64939;DHT22;51453;47.738;7.420;2022-12-13T08:40:31;-4.70;99.90
64939;DHT22;51453;47.738;7.420;2022-12-13T08:42:57;-4.70;99.90
64939;DHT22;51453;47.738;7.420;2022-12-13T08:45:23;-4.70;99.90
64939;DHT22;51453;47.738;7.420;2022-12-13T08:47:49;-4.60;99.90
64939;DHT22;51453;47.738;7.420;2022-12-13T08:50:15;-4.40;99.90
64939;DHT22;51453;47.738;7.420;2022-12-13T08:52:40;-4.30;99.90
64939;DHT22;51453;47.738;7.420;2022-12-13T08:55:13;-4.20;99.90
64939;DHT22;51453;47.738;7.420;2022-12-13T08:57:41;-4.20;99.90
64939;DHT22;51453;47.738;7.420;2022-12-13T09:00:10;-4.20;99.90
64939;DHT22;51453;47.738;7.420;2022-12-13T09:02:36;-4.30;99.90
64939;DHT22;51453;47.738;7.420;2022-12-13T09:05:02;-4.20;99.90
64939;DHT22;51453;47.738;7.420;2022-12-13T09:07:28;-4.10;99.90
64939;DHT22;51453;47.738;7.420;2022-12-13T09:09:54;-4.00;99.90
64939;DHT22;51453;47.738;7.420;2022-12-13T09:12:19;-3.90;99.90
64939;DHT22;51453;47.738;7.420;2022-12-13T09:14:45;-3.80;99.90
64939;DHT22;51453;47.738;7.420;2022-12-13T09:17:15;-3.70;99.90
64939;DHT22;51453;47.738;7.420;2022-12-13T09:19:41;-3.50;99.90
64939;DHT22;51453;47.738;7.420;2022-12-13T09:22:06;-3.40;99.90
64939;DHT22;51453;47.738;7.420;2022-12-13T09:24:32;-3.30;99.90
64939;DHT22;51453;47.738;7.420;2022-12-13T09:26:58;-3.50;99.90
64939;DHT22;51453;47.738;7.420;2022-12-13T09:29:23;-3.60;99.90
64939;DHT22;51453;47.738;7.420;2022-12-13T09:31:49;-3.60;99.90
64939;DHT22;51453;47.738;7.420;2022-12-13T09:34:15;-3.50;99.90
64939;DHT22;51453;47.738;7.420;2022-12-13T09:36:40;-3.40;99.90
64939;DHT22;51453;47.738;7.420;2022-12-13T09:39:07;-3.50;99.90
64939;DHT22;51453;47.738;7.420;2022-12-13T09:41:39;-3.40;99.90
64939;DHT22;51453;47.738;7.420;2022-12-13T09:44:15;-3.40;99.90
64939;DHT22;51453;47.738;7.420;2022-12-13T09:46:44;-3.60;99.90
64939;DHT22;51453;47.738;7.420;2022-12-13T09:51:51;-3.50;99.90
64939;DHT22;51453;47.738;7.420;2022-12-13T09:54:19;-3.50;99.90
64939;DHT22;51453;47.738;7.420;2022-12-13T09:56:48;-3.50;99.90
64939;DHT22;51453;47.738;7.420;2022-12-13T09:59:30;-3.50;99.90
64939;DHT22;51453;47.738;7.420;2022-12-13T10:02:02;-3.40;99.90
64939;DHT22;51453;47.738;7.420;2022-12-13T10:04:28;-3.10;99.90
64939;DHT22;51453;47.738;7.420;2022-12-13T10:06:55;-2.80;99.90
64939;DHT22;51453;47.738;7.420;2022-12-13T10:09:22;-2.70;99.90
64939;DHT22;51453;47.738;7.420;2022-12-13T10:11:49;-2.50;99.90
64939;DHT22;51453;47.738;7.420;2022-12-13T10:14:27;-2.20;99.90
64939;DHT22;51453;47.738;7.420;2022-12-13T10:16:58;-2.20;99.90
64939;DHT22;51453;47.738;7.420;2022-12-13T10:19:42;-2.00;99.90
64939;DHT22;51453;47.738;7.420;2022-12-13T10:22:12;-2.00;99.90
64939;DHT22;51453;47.738;7.420;2022-12-13T10:35:30;-1.80;99.90
64939;DHT22;51453;47.738;7.420;2022-12-13T10:38:01;-1.70;99.90
64939;DHT22;51453;47.738;7.420;2022-12-13T10:40:31;-1.70;99.90
64939;DHT22;51453;47.738;7.420;2022-12-13T10:43:14;-1.70;99.90
64939;DHT22;51453;47.738;7.420;2022-12-13T10:48:39;-1.40;99.90
64939;DHT22;51453;47.738;7.420;2022-12-13T10:51:12;-1.30;99.90
64939;DHT22;51453;47.738;7.420;2022-12-13T10:53:48;-1.40;99.90
64939;DHT22;51453;47.738;7.420;2022-12-13T10:56:19;-1.40;99.90
64939;DHT22;51453;47.738;7.420;2022-12-13T10:58:48;-1.60;99.90
64939;DHT22;51453;47.738;7.420;2022-12-13T11:01:21;-1.60;99.90
64939;DHT22;51453;47.738;7.420;2022-12-13T11:04:25;-1.50;99.90
64939;DHT22;51453;47.738;7.420;2022-12-13T11:06:54;-1.60;99.90
64939;DHT22;51453;47.738;7.420;2022-12-13T11:09:33;-1.50;99.90
64939;DHT22;51453;47.738;7.420;2022-12-13T11:12:14;-1.30;99.90
64939;DHT22;51453;47.738;7.420;2022-12-13T11:15:06;-1.10;99.90
64939;DHT22;51453;47.738;7.420;2022-12-13T11:17:43;-1.20;99.90
64939;DHT22;51453;47.738;7.420;2022-12-13T11:20:37;-1.00;99.90
64939;DHT22;51453;47.738;7.420;2022-12-13T11:23:06;-1.00;99.90
64939;DHT22;51453;47.738;7.420;2022-12-13T11:25:39;-0.90;99.90
64939;DHT22;51453;47.738;7.420;2022-12-13T11:28:15;-1.00;99.90
64939;DHT22;51453;47.738;7.420;2022-12-13T11:36:33;-1.70;99.90
64939;DHT22;51453;47.738;7.420;2022-12-13T11:42:40;-1.60;99.90
64939;DHT22;51453;47.738;7.420;2022-12-13T11:45:14;-1.30;99.90
64939;DHT22;51453;47.738;7.420;2022-12-13T11:47:47;-1.20;99.90
64939;DHT22;51453;47.738;7.420;2022-12-13T11:50:18;-1.00;99.90
64939;DHT22;51453;47.738;7.420;2022-12-13T11:52:52;-0.90;99.90
64939;DHT22;51453;47.738;7.420;2022-12-13T12:00:44;-0.60;99.90
64939;DHT22;51453;47.738;7.420;2022-12-13T12:03:42;-0.50;99.90
64939;DHT22;51453;47.738;7.420;2022-12-13T12:08:50;0.00;99.90
64939;DHT22;51453;47.738;7.420;2022-12-13T12:11:28;0.20;99.90
64939;DHT22;51453;47.738;7.420;2022-12-13T12:16:39;0.60;99.90
64939;DHT22;51453;47.738;7.420;2022-12-13T12:19:15;0.60;99.90
64939;DHT22;51453;47.738;7.420;2022-12-13T12:21:57;0.80;99.90
64939;DHT22;51453;47.738;7.420;2022-12-13T12:35:43;0.30;99.90
64939;DHT22;51453;47.738;7.420;2022-12-13T12:41:16;-0.20;99.90
64939;DHT22;51453;47.738;7.420;2022-12-13T12:47:14;-0.50;99.90
64939;DHT22;51453;47.738;7.420;2022-12-13T12:55:15;-0.30;99.90
64939;DHT22;51453;47.738;7.420;2022-12-13T13:03:32;-0.50;99.90
64939;DHT22;51453;47.738;7.420;2022-12-13T13:06:15;-0.50;99.90
64939;DHT22;51453;47.738;7.420;2022-12-13T13:09:05;-0.60;99.90
64939;DHT22;51453;47.738;7.420;2022-12-13T13:11:40;-0.60;99.90
64939;DHT22;51453;47.738;7.420;2022-12-13T13:14:32;-0.60;99.90
64939;DHT22;51453;47.738;7.420;2022-12-13T13:17:43;-0.40;99.90
64939;DHT22;51453;47.738;7.420;2022-12-13T13:22:33;-0.70;99.90
64939;DHT22;51453;47.738;7.420;2022-12-13T13:27:44;-1.00;99.90
64939;DHT22;51453;47.738;7.420;2022-12-13T13:32:45;-1.10;99.90
64939;DHT22;51453;47.738;7.420;2022-12-13T13:38:01;-1.30;99.90
64939;DHT22;51453;47.738;7.420;2022-12-13T13:40:30;-1.30;99.90
64939;DHT22;51453;47.738;7.420;2022-12-13T13:43:06;-1.20;99.90
64939;DHT22;51453;47.738;7.420;2022-12-13T14:29:17;-1.50;99.90
64939;DHT22;51453;47.738;7.420;2022-12-13T14:31:47;-1.40;99.90
64939;DHT22;51453;47.738;7.420;2022-12-13T14:36:53;-1.60;99.90
64939;DHT22;51453;47.738;7.420;2022-12-13T14:39:19;-1.60;99.90
64939;DHT22;51453;47.738;7.420;2022-12-13T14:41:47;-1.50;99.90
64939;DHT22;51453;47.738;7.420;2022-12-13T14:44:21;-1.40;99.90
64939;DHT22;51453;47.738;7.420;2022-12-13T14:46:54;-1.30;99.90
64939;DHT22;51453;47.738;7.420;2022-12-13T14:49:21;-1.30;99.90
64939;DHT22;51453;47.738;7.420;2022-12-13T14:51:51;-1.30;99.90
64939;DHT22;51453;47.738;7.420;2022-12-13T14:54:21;-1.40;99.90
64939;DHT22;51453;47.738;7.420;2022-12-13T14:56:58;-1.50;99.90
64939;DHT22;51453;47.738;7.420;2022-12-13T14:59:25;-1.60;99.90
64939;DHT22;51453;47.738;7.420;2022-12-13T15:02:00;-1.80;99.90
64939;DHT22;51453;47.738;7.420;2022-12-13T15:04:32;-1.80;99.90
64939;DHT22;51453;47.738;7.420;2022-12-13T15:09:24;-1.90;99.90
64939;DHT22;51453;47.738;7.420;2022-12-13T15:11:51;-1.90;99.90
64939;DHT22;51453;47.738;7.420;2022-12-13T15:14:18;-1.90;99.90
64939;DHT22;51453;47.738;7.420;2022-12-13T15:16:50;-1.90;99.90
64939;DHT22;51453;47.738;7.420;2022-12-13T15:19:19;-2.00;99.90
64939;DHT22;51453;47.738;7.420;2022-12-13T15:21:56;-2.00;99.90
64939;DHT22;51453;47.738;7.420;2022-12-13T15:24:26;-2.00;99.90
64939;DHT22;51453;47.738;7.420;2022-12-13T15:26:54;-2.00;99.90
64939;DHT22;51453;47.738;7.420;2022-12-13T15:29:22;-2.10;99.90
64939;DHT22;51453;47.738;7.420;2022-12-13T15:31:48;-2.20;99.90
64939;DHT22;51453;47.738;7.420;2022-12-13T15:34:33;-2.20;99.90
64939;DHT22;51453;47.738;7.420;2022-12-13T15:37:02;-2.20;99.90
64939;DHT22;51453;47.738;7.420;2022-12-13T15:39:38;-2.30;99.90
64939;DHT22;51453;47.738;7.420;2022-12-13T15:42:04;-2.30;99.90
64939;DHT22;51453;47.738;7.420;2022-12-13T15:44:35;-2.30;99.90
64939;DHT22;51453;47.738;7.420;2022-12-13T15:47:13;-2.30;99.90
64939;DHT22;51453;47.738;7.420;2022-12-13T15:57:34;-2.40;99.90
64939;DHT22;51453;47.738;7.420;2022-12-13T16:02:33;-2.50;99.90
64939;DHT22;51453;47.738;7.420;2022-12-13T16:05:07;-2.50;99.90
64939;DHT22;51453;47.738;7.420;2022-12-13T16:07:34;-2.50;99.90
64939;DHT22;51453;47.738;7.420;2022-12-13T16:10:03;-2.50;99.90
64939;DHT22;51453;47.738;7.420;2022-12-13T16:12:51;-2.50;99.90
64939;DHT22;51453;47.738;7.420;2022-12-13T16:15:21;-2.60;99.90
64939;DHT22;51453;47.738;7.420;2022-12-13T16:17:53;-2.60;99.90
64939;DHT22;51453;47.738;7.420;2022-12-13T16:20:20;-2.60;99.90
64939;DHT22;51453;47.738;7.420;2022-12-13T16:22:47;-2.60;99.90
64939;DHT22;51453;47.738;7.420;2022-12-13T16:25:15;-2.50;99.90
64939;DHT22;51453;47.738;7.420;2022-12-13T16:27:42;-2.60;99.90
64939;DHT22;51453;47.738;7.420;2022-12-13T16:30:51;-2.60;99.90
64939;DHT22;51453;47.738;7.420;2022-12-13T16:33:13;-2.60;99.90
64939;DHT22;51453;47.738;7.420;2022-12-13T16:35:39;-2.60;99.90
64939;DHT22;51453;47.738;7.420;2022-12-13T16:38:07;-2.60;99.90
64939;DHT22;51453;47.738;7.420;2022-12-13T16:40:33;-2.60;99.90
64939;DHT22;51453;47.738;7.420;2022-12-13T16:43:02;-2.60;99.90
64939;DHT22;51453;47.738;7.420;2022-12-13T16:45:40;-2.60;99.90
64939;DHT22;51453;47.738;7.420;2022-12-13T16:48:11;-2.60;99.90
64939;DHT22;51453;47.738;7.420;2022-12-13T16:50:43;-2.60;99.90
64939;DHT22;51453;47.738;7.420;2022-12-13T16:53:09;-2.60;99.90
64939;DHT22;51453;47.738;7.420;2022-12-13T16:55:34;-2.60;99.90
64939;DHT22;51453;47.738;7.420;2022-12-13T16:58:05;-2.70;99.90
64939;DHT22;51453;47.738;7.420;2022-12-13T17:00:32;-2.60;99.90
64939;DHT22;51453;47.738;7.420;2022-12-13T17:02:58;-2.60;99.90
64939;DHT22;51453;47.738;7.420;2022-12-13T17:05:25;-2.60;99.90
64939;DHT22;51453;47.738;7.420;2022-12-13T17:07:51;-2.60;99.90
64939;DHT22;51453;47.738;7.420;2022-12-13T17:10:18;-2.60;99.90
64939;DHT22;51453;47.738;7.420;2022-12-13T17:12:44;-2.60;99.90
64939;DHT22;51453;47.738;7.420;2022-12-13T17:15:11;-2.60;99.90
64939;DHT22;51453;47.738;7.420;2022-12-13T17:17:38;-2.60;99.90
64939;DHT22;51453;47.738;7.420;2022-12-13T17:20:09;-2.60;99.90
64939;DHT22;51453;47.738;7.420;2022-12-13T17:22:35;-2.60;99.90
64939;DHT22;51453;47.738;7.420;2022-12-13T17:25:02;-2.50;99.90
64939;DHT22;51453;47.738;7.420;2022-12-13T17:27:29;-2.50;99.90
64939;DHT22;51453;47.738;7.420;2022-12-13T17:29:55;-2.40;99.90
64939;DHT22;51453;47.738;7.420;2022-12-13T17:32:21;-2.30;99.90
64939;DHT22;51453;47.738;7.420;2022-12-13T17:34:47;-2.30;99.90
64939;DHT22;51453;47.738;7.420;2022-12-13T17:37:13;-2.20;99.90
64939;DHT22;51453;47.738;7.420;2022-12-13T17:39:38;-2.20;99.90
64939;DHT22;51453;47.738;7.420;2022-12-13T17:42:04;-2.20;99.90
64939;DHT22;51453;47.738;7.420;2022-12-13T17:44:30;-2.20;99.90
64939;DHT22;51453;47.738;7.420;2022-12-13T17:46:56;-2.20;99.90
64939;DHT22;51453;47.738;7.420;2022-12-13T17:49:22;-2.20;99.90
64939;DHT22;51453;47.738;7.420;2022-12-13T17:51:48;-2.10;99.90
64939;DHT22;51453;47.738;7.420;2022-12-13T17:54:17;-2.20;99.90
64939;DHT22;51453;47.738;7.420;2022-12-13T17:56:42;-2.20;99.90
64939;DHT22;51453;47.738;7.420;2022-12-13T17:59:11;-2.30;99.90
64939;DHT22;51453;47.738;7.420;2022-12-13T18:01:36;-2.30;99.90
64939;DHT22;51453;47.738;7.420;2022-12-13T18:04:02;-2.30;99.90
64939;DHT22;51453;47.738;7.420;2022-12-13T18:06:28;-2.40;99.90
64939;DHT22;51453;47.738;7.420;2022-12-13T18:08:53;-2.40;99.90
64939;DHT22;51453;47.738;7.420;2022-12-13T18:11:20;-2.40;99.90
64939;DHT22;51453;47.738;7.420;2022-12-13T18:13:46;-2.40;99.90
64939;DHT22;51453;47.738;7.420;2022-12-13T18:16:14;-2.40;99.90
64939;DHT22;51453;47.738;7.420;2022-12-13T18:18:42;-2.40;99.90
64939;DHT22;51453;47.738;7.420;2022-12-13T18:21:09;-2.50;99.90
64939;DHT22;51453;47.738;7.420;2022-12-13T18:23:36;-2.60;99.90
64939;DHT22;51453;47.738;7.420;2022-12-13T18:26:05;-2.60;99.90
64939;DHT22;51453;47.738;7.420;2022-12-13T18:28:31;-2.60;99.90